Time;durP1;ratioP1;P1;durP2;ratioP2;P2;SDS_P1;SDS_P2;PMS_P1;PMS_P2;Temp;Humidity;BMP_temperature;BMP_pressure;BME280_temperature;BME280_humidity;BME280_pressure;Samples;Min_cycle;Max_cycle;Signal;HPM_P1;HPM_P2
2022/05/15 00:00:42;;;;;;;0.77;0.77;;;12.90;99.90;;;;;;4392782;32;20097;-70
2022/05/15 00:03:15;;;;;;;0.47;0.47;;;12.80;99.90;;;;;;4424455;32;20068;-69
2022/05/15 00:05:41;;;;;;;0.60;0.45;;;12.80;99.90;;;;;;4425100;32;20549;-68
2022/05/15 00:08:09;;;;;;;2.20;0.75;;;12.70;99.90;;;;;;4426372;32;20105;-69
2022/05/15 00:10:35;;;;;;;0.30;0.30;;;12.60;99.90;;;;;;4423411;32;20066;-69
2022/05/15 00:13:01;;;;;;;0.40;0.40;;;12.50;99.90;;;;;;4426099;32;20464;-70
2022/05/15 00:15:27;;;;;;;2.25;1.05;;;12.40;99.90;;;;;;4424855;32;20069;-70
2022/05/15 00:17:52;;;;;;;0.65;0.65;;;12.30;99.90;;;;;;4427933;32;20513;-69
2022/05/15 00:20:17;;;;;;;0.90;0.50;;;12.30;99.90;;;;;;4427520;32;20073;-69
2022/05/15 00:22:43;;;;;;;1.58;0.70;;;12.40;99.90;;;;;;4427522;32;20069;-70
2022/05/15 00:25:09;;;;;;;3.87;1.23;;;12.40;99.90;;;;;;4427088;32;20065;-69
2022/05/15 00:27:34;;;;;;;0.45;0.45;;;12.50;99.90;;;;;;4421042;32;20065;-70
2022/05/15 00:30:00;;;;;;;5.00;1.10;;;12.50;99.90;;;;;;4407073;32;20152;-69
2022/05/15 00:32:25;;;;;;;12.95;0.73;;;12.50;99.90;;;;;;4419633;32;20082;-68
2022/05/15 00:34:51;;;;;;;3.17;1.37;;;12.30;99.90;;;;;;4425414;32;20531;-69
2022/05/15 00:37:16;;;;;;;0.30;0.30;;;12.20;99.90;;;;;;4425241;32;20129;-69
2022/05/15 00:39:42;;;;;;;0.52;0.52;;;12.30;99.90;;;;;;4424160;32;20086;-69
2022/05/15 00:42:09;;;;;;;0.32;0.32;;;12.20;99.90;;;;;;4427485;32;20163;-69
2022/05/15 00:44:34;;;;;;;0.60;0.60;;;12.00;99.90;;;;;;4427228;32;20529;-69
2022/05/15 00:47:00;;;;;;;0.30;0.30;;;11.90;99.90;;;;;;4425535;32;20097;-69
2022/05/15 00:49:25;;;;;;;0.30;0.30;;;11.80;99.90;;;;;;4427014;32;20104;-69
2022/05/15 00:51:58;;;;;;;1.37;0.80;;;11.80;99.90;;;;;;4426107;32;20417;-71
2022/05/15 00:54:45;;;;;;;0.60;0.60;;;11.90;99.90;;;;;;4427233;32;20088;-68
2022/05/15 00:57:18;;;;;;;3.40;0.98;;;12.00;99.90;;;;;;4424431;32;20065;-69
2022/05/15 01:00:17;;;;;;;1.60;1.12;;;12.00;99.90;;;;;;4406190;32;20125;-70
2022/05/15 01:02:50;;;;;;;0.40;0.40;;;12.00;99.90;;;;;;4402341;32;20069;-69
2022/05/15 01:05:16;;;;;;;0.30;0.30;;;11.80;99.90;;;;;;4426140;32;20061;-69
2022/05/15 01:07:42;;;;;;;0.45;0.45;;;11.80;99.90;;;;;;4425453;32;20128;-69
2022/05/15 01:10:09;;;;;;;0.45;0.45;;;11.80;99.90;;;;;;4423964;32;20073;-70
2022/05/15 01:12:38;;;;;;;0.40;0.40;;;11.60;99.90;;;;;;4425263;32;20112;-70
2022/05/15 01:15:04;;;;;;;0.45;0.45;;;11.70;99.90;;;;;;4426360;32;20105;-69
2022/05/15 01:17:29;;;;;;;0.50;0.50;;;11.70;99.90;;;;;;4428520;32;20133;-69
2022/05/15 01:20:08;;;;;;;0.50;0.50;;;11.80;99.90;;;;;;4429226;32;20113;-70
2022/05/15 01:22:33;;;;;;;0.82;0.82;;;11.70;99.90;;;;;;4428131;32;20574;-69
2022/05/15 01:25:00;;;;;;;0.30;0.30;;;11.50;99.90;;;;;;4429597;32;20065;-69
2022/05/15 01:27:26;;;;;;;0.35;0.35;;;11.60;99.90;;;;;;4422481;32;20176;-70
2022/05/15 01:29:51;;;;;;;1.10;0.90;;;11.60;99.90;;;;;;4410055;32;20193;-69
2022/05/15 01:32:17;;;;;;;0.65;0.50;;;11.60;99.90;;;;;;4419818;32;20540;-69
2022/05/15 01:34:42;;;;;;;0.95;0.95;;;11.70;99.90;;;;;;4427342;32;20072;-69
2022/05/15 01:37:08;;;;;;;12.80;0.60;;;11.70;99.90;;;;;;4427022;32;20137;-69
2022/05/15 01:39:35;;;;;;;0.73;0.73;;;11.80;99.90;;;;;;4427331;32;20081;-70
2022/05/15 01:42:02;;;;;;;0.52;0.52;;;11.70;99.90;;;;;;4430049;32;20069;-70
2022/05/15 01:44:28;;;;;;;3.20;1.30;;;11.70;99.90;;;;;;4427428;32;20139;-69
2022/05/15 01:46:54;;;;;;;0.40;0.40;;;11.80;99.90;;;;;;4428579;32;20065;-70
2022/05/15 01:49:20;;;;;;;0.45;0.45;;;11.70;99.90;;;;;;4427483;32;20137;-69
2022/05/15 01:51:46;;;;;;;0.50;0.50;;;11.60;99.90;;;;;;4427328;32;20458;-70
2022/05/15 01:54:12;;;;;;;0.55;0.55;;;11.60;99.90;;;;;;4427401;32;20090;-69
2022/05/15 01:56:38;;;;;;;1.27;0.77;;;11.60;99.90;;;;;;4426612;32;20061;-69
2022/05/15 01:59:06;;;;;;;0.30;0.30;;;11.50;99.90;;;;;;4410217;32;20066;-70
2022/05/15 02:01:32;;;;;;;2.03;0.50;;;11.40;99.90;;;;;;4413612;32;20307;-70
2022/05/15 02:03:58;;;;;;;1.48;0.57;;;11.40;99.90;;;;;;4425413;32;20097;-69
2022/05/15 02:06:23;;;;;;;5.45;0.55;;;11.40;99.90;;;;;;4425638;32;20069;-70
2022/05/15 02:08:49;;;;;;;0.30;0.30;;;11.40;99.90;;;;;;4426595;32;20074;-69
2022/05/15 02:11:14;;;;;;;1.15;0.57;;;11.40;99.90;;;;;;4426028;32;20069;-68
2022/05/15 02:13:40;;;;;;;0.43;0.40;;;11.30;99.90;;;;;;4427035;32;20467;-70
2022/05/15 02:16:06;;;;;;;2.50;0.68;;;11.30;99.90;;;;;;4427407;32;20500;-70
2022/05/15 02:18:32;;;;;;;1.87;0.75;;;11.40;99.90;;;;;;4424236;32;20146;-70
2022/05/15 02:20:58;;;;;;;0.40;0.40;;;11.40;99.90;;;;;;4429555;32;20069;-70
2022/05/15 02:23:24;;;;;;;0.40;0.40;;;11.10;99.90;;;;;;4427565;32;20077;-70
2022/05/15 02:25:49;;;;;;;1.85;0.88;;;11.20;99.90;;;;;;4428859;32;20065;-71
2022/05/15 02:28:15;;;;;;;0.47;0.47;;;11.20;99.90;;;;;;4414404;32;20124;-70
2022/05/15 02:30:40;;;;;;;4.37;0.77;;;11.00;99.90;;;;;;4409619;32;20088;-68
2022/05/15 02:33:06;;;;;;;7.87;1.10;;;10.80;99.90;;;;;;4425246;32;20136;-69
2022/05/15 02:35:32;;;;;;;1.67;0.50;;;10.90;99.90;;;;;;4428567;32;20085;-68
2022/05/15 02:37:58;;;;;;;0.60;0.60;;;10.90;99.90;;;;;;4425248;32;20086;-71
2022/05/15 02:40:25;;;;;;;1.48;0.60;;;10.90;99.90;;;;;;4426921;32;20488;-69
2022/05/15 02:42:53;;;;;;;0.40;0.40;;;10.90;99.90;;;;;;4426091;32;20544;-69
2022/05/15 02:45:18;;;;;;;2.78;0.95;;;10.80;99.90;;;;;;4428003;32;20061;-69
2022/05/15 02:47:44;;;;;;;0.80;0.62;;;10.80;99.90;;;;;;4425431;32;20521;-69
2022/05/15 02:51:09;;;;;;;1.55;1.05;;;10.80;99.90;;;;;;4428810;32;20224;-68
2022/05/15 02:52:55;;;;;;;7.12;0.88;;;10.90;99.90;;;;;;4412579;32;20089;-69
2022/05/15 02:55:22;;;;;;;0.98;0.68;;;10.90;99.90;;;;;;4424306;32;20486;-69
2022/05/15 02:57:48;;;;;;;5.25;1.65;;;10.80;99.90;;;;;;4419638;32;20062;-69
2022/05/15 03:00:15;;;;;;;11.95;0.60;;;10.80;99.90;;;;;;4408594;32;20777;-69
2022/05/15 03:02:41;;;;;;;2.58;0.70;;;10.80;99.90;;;;;;4421547;32;20109;-69
2022/05/15 03:05:09;;;;;;;0.52;0.52;;;10.80;99.90;;;;;;4425474;32;20073;-69
2022/05/15 03:07:36;;;;;;;0.82;0.68;;;10.80;99.90;;;;;;4427464;32;20057;-68
2022/05/15 03:10:02;;;;;;;0.47;0.47;;;10.80;99.90;;;;;;4425833;32;20123;-69
2022/05/15 03:12:28;;;;;;;0.85;0.75;;;10.80;99.90;;;;;;4426274;32;20120;-69
2022/05/15 03:14:53;;;;;;;0.65;0.50;;;10.70;99.90;;;;;;4427682;32;20086;-69
2022/05/15 03:17:20;;;;;;;1.27;0.98;;;10.80;99.90;;;;;;4427423;32;20117;-70
2022/05/15 03:19:45;;;;;;;4.85;1.95;;;10.60;99.90;;;;;;4427085;32;20130;-69
2022/05/15 03:22:11;;;;;;;3.12;1.50;;;10.70;99.90;;;;;;4426110;32;20097;-69
2022/05/15 03:24:37;;;;;;;0.30;0.30;;;10.70;99.90;;;;;;4426793;32;20074;-70
2022/05/15 03:27:02;;;;;;;1.08;0.90;;;10.50;99.90;;;;;;4426001;32;20058;-69
2022/05/15 03:29:28;;;;;;;0.40;0.40;;;10.40;99.90;;;;;;4408402;32;20331;-69
2022/05/15 03:31:54;;;;;;;1.17;0.95;;;10.30;99.90;;;;;;4416074;32;20069;-70
2022/05/15 03:34:20;;;;;;;0.43;0.43;;;10.40;99.90;;;;;;4423395;32;20822;-69
2022/05/15 03:36:48;;;;;;;0.82;0.57;;;10.40;99.90;;;;;;4425775;32;20073;-69
2022/05/15 03:39:15;;;;;;;0.50;0.50;;;10.40;99.90;;;;;;4422712;32;20085;-69
2022/05/15 03:41:41;;;;;;;0.70;0.70;;;10.50;99.90;;;;;;4426110;32;20080;-69
2022/05/15 03:44:07;;;;;;;1.27;0.60;;;10.50;99.90;;;;;;4427730;32;20082;-69
2022/05/15 03:46:34;;;;;;;4.97;0.60;;;10.50;99.90;;;;;;4424729;32;20090;-69
2022/05/15 03:49:00;;;;;;;2.70;1.17;;;10.60;99.90;;;;;;4426704;32;20123;-69
2022/05/15 03:51:26;;;;;;;0.40;0.40;;;10.50;99.90;;;;;;4426552;32;20069;-69
2022/05/15 03:53:51;;;;;;;0.30;0.30;;;10.70;99.90;;;;;;4423900;32;20261;-70
2022/05/15 03:56:17;;;;;;;2.80;1.23;;;10.80;99.90;;;;;;4425628;32;20065;-69
2022/05/15 03:58:43;;;;;;;1.08;0.60;;;10.90;99.90;;;;;;4411725;32;20085;-69
2022/05/15 04:01:09;;;;;;;0.45;0.45;;;10.90;99.90;;;;;;4410790;32;20112;-69
2022/05/15 04:03:35;;;;;;;1.52;1.05;;;10.80;99.90;;;;;;4423767;32;20438;-70
2022/05/15 04:06:01;;;;;;;18.83;0.47;;;10.80;99.90;;;;;;4427933;32;20520;-71
2022/05/15 04:08:27;;;;;;;1.27;0.77;;;10.80;99.90;;;;;;4425196;32;20911;-69
2022/05/15 04:10:54;;;;;;;17.42;3.50;;;10.90;99.90;;;;;;4428024;32;20516;-69
2022/05/15 04:13:19;;;;;;;0.37;0.37;;;10.90;99.90;;;;;;4426494;32;20070;-69
2022/05/15 04:15:45;;;;;;;0.40;0.40;;;10.90;99.90;;;;;;4427178;32;20078;-70
2022/05/15 04:18:11;;;;;;;0.40;0.40;;;10.90;99.90;;;;;;4429193;32;21217;-69
2022/05/15 04:20:37;;;;;;;1.65;1.00;;;11.00;99.90;;;;;;4426265;32;20102;-68
2022/05/15 04:23:03;;;;;;;0.52;0.52;;;11.00;99.90;;;;;;4424744;32;20090;-69
2022/05/15 04:25:28;;;;;;;0.40;0.40;;;11.00;99.90;;;;;;4426473;32;20132;-69
2022/05/15 04:27:54;;;;;;;0.30;0.30;;;11.00;99.90;;;;;;4417277;32;20069;-68
2022/05/15 04:30:23;;;;;;;0.40;0.30;;;11.10;99.90;;;;;;4406307;32;20468;-69
2022/05/15 04:32:51;;;;;;;0.55;0.55;;;11.10;99.90;;;;;;4422520;32;20085;-69
2022/05/15 04:35:17;;;;;;;0.30;0.30;;;11.10;99.90;;;;;;4426665;32;20070;-69
2022/05/15 04:37:43;;;;;;;0.50;0.50;;;11.20;99.90;;;;;;4422429;32;20114;-70
2022/05/15 04:40:10;;;;;;;0.85;0.50;;;11.30;99.90;;;;;;4426549;32;20069;-69
2022/05/15 04:42:35;;;;;;;1.70;0.93;;;11.30;99.90;;;;;;4426046;32;20164;-70
2022/05/15 04:45:01;;;;;;;0.40;0.40;;;11.40;99.90;;;;;;4425649;32;20987;-70
2022/05/15 04:47:26;;;;;;;2.08;0.40;;;11.40;99.90;;;;;;4426186;32;20131;-69
2022/05/15 04:49:52;;;;;;;0.47;0.47;;;11.50;99.90;;;;;;4427639;32;20548;-69
2022/05/15 04:52:17;;;;;;;0.43;0.43;;;11.60;99.90;;;;;;4430980;32;20136;-69
2022/05/15 04:54:43;;;;;;;0.40;0.40;;;11.60;99.90;;;;;;4427778;32;20074;-69
2022/05/15 04:57:09;;;;;;;0.30;0.30;;;11.70;99.90;;;;;;4425498;32;20090;-70
2022/05/15 04:59:35;;;;;;;1.20;1.05;;;11.70;99.90;;;;;;4407782;32;20080;-70
2022/05/15 05:02:01;;;;;;;0.30;0.30;;;11.80;99.90;;;;;;4418167;32;20435;-71
2022/05/15 05:04:26;;;;;;;0.30;0.30;;;11.80;99.90;;;;;;4429812;32;20062;-69
2022/05/15 05:06:52;;;;;;;2.08;1.37;;;11.80;99.90;;;;;;4432387;32;20558;-70
2022/05/15 05:09:18;;;;;;;0.22;0.22;;;12.00;99.90;;;;;;4426373;32;20462;-69
2022/05/15 05:11:44;;;;;;;1.17;0.75;;;12.00;99.90;;;;;;4430858;32;20064;-68
2022/05/15 05:14:09;;;;;;;6.22;1.37;;;12.10;99.90;;;;;;4428452;32;20069;-69
2022/05/15 05:16:35;;;;;;;0.30;0.30;;;12.20;99.90;;;;;;4414608;32;20094;-69
2022/05/15 05:19:02;;;;;;;0.20;0.20;;;12.20;99.90;;;;;;4427856;32;20057;-68
2022/05/15 05:21:27;;;;;;;0.30;0.30;;;12.30;99.90;;;;;;4428793;32;20101;-70
2022/05/15 05:23:53;;;;;;;0.40;0.40;;;12.50;99.90;;;;;;4427713;32;20065;-69
2022/05/15 05:26:18;;;;;;;0.40;0.40;;;12.50;99.90;;;;;;4428759;32;20089;-69
2022/05/15 05:28:44;;;;;;;0.35;0.35;;;12.60;99.90;;;;;;4414171;32;20105;-70
2022/05/15 05:31:09;;;;;;;1.17;0.62;;;12.70;99.90;;;;;;4411695;32;20101;-72
2022/05/15 05:33:35;;;;;;;0.20;0.20;;;12.80;99.90;;;;;;4428003;32;20132;-68
2022/05/15 05:36:00;;;;;;;0.50;0.50;;;12.90;99.90;;;;;;4426607;32;20074;-70
2022/05/15 05:38:26;;;;;;;0.30;0.30;;;12.90;99.90;;;;;;4426196;32;20124;-69
2022/05/15 05:40:51;;;;;;;0.30;0.30;;;12.90;99.90;;;;;;4428033;32;20073;-69
2022/05/15 05:43:17;;;;;;;0.57;0.57;;;13.00;99.90;;;;;;4430314;32;20078;-71
2022/05/15 05:45:43;;;;;;;0.62;0.60;;;13.00;99.90;;;;;;4427991;32;20081;-69
2022/05/15 05:48:09;;;;;;;0.22;0.22;;;13.10;99.90;;;;;;4428420;32;20120;-69
2022/05/15 05:50:36;;;;;;;1.02;0.57;;;13.20;99.90;;;;;;4428400;32;20062;-69
2022/05/15 05:53:01;;;;;;;3.10;0.40;;;13.20;99.90;;;;;;4427045;32;20153;-69
2022/05/15 05:55:27;;;;;;;9.32;0.68;;;13.30;99.90;;;;;;4425944;32;20120;-69
2022/05/15 05:57:53;;;;;;;0.30;0.30;;;13.30;99.90;;;;;;4421070;32;20060;-71
2022/05/15 06:00:23;;;;;;;0.20;0.20;;;13.30;99.90;;;;;;4408260;32;20081;-69
2022/05/15 06:02:49;;;;;;;0.22;0.22;;;13.40;99.90;;;;;;4424989;32;20091;-69
2022/05/15 06:05:14;;;;;;;0.60;0.60;;;13.40;99.90;;;;;;4428053;32;20509;-69
2022/05/15 06:07:40;;;;;;;0.40;0.40;;;13.40;99.90;;;;;;4425730;32;20153;-73
2022/05/15 06:10:08;;;;;;;0.73;0.73;;;13.50;99.90;;;;;;4425070;32;20078;-69
2022/05/15 06:12:33;;;;;;;2.35;0.73;;;13.50;99.90;;;;;;4428978;32;20065;-69
2022/05/15 06:14:59;;;;;;;0.30;0.30;;;13.50;99.90;;;;;;4427071;32;20069;-69
2022/05/15 06:17:27;;;;;;;0.30;0.30;;;13.60;99.90;;;;;;4427188;32;20081;-69
2022/05/15 06:19:54;;;;;;;5.65;1.48;;;13.60;99.90;;;;;;4427543;32;20536;-69
2022/05/15 06:22:20;;;;;;;0.30;0.30;;;13.60;99.90;;;;;;4427972;32;20524;-70
2022/05/15 06:24:45;;;;;;;0.60;0.60;;;13.70;99.90;;;;;;4428091;32;20085;-69
2022/05/15 06:27:11;;;;;;;0.57;0.57;;;13.70;99.90;;;;;;4423960;32;20579;-69
2022/05/15 06:29:38;;;;;;;0.30;0.30;;;13.70;99.90;;;;;;4412251;32;20061;-69
2022/05/15 06:32:05;;;;;;;0.30;0.30;;;13.70;99.90;;;;;;4416482;32;20077;-69
2022/05/15 06:34:30;;;;;;;1.95;0.45;;;13.90;99.90;;;;;;4425987;32;20081;-69
2022/05/15 06:36:56;;;;;;;0.60;0.60;;;14.00;99.90;;;;;;4426781;32;20064;-69
2022/05/15 06:39:21;;;;;;;0.73;0.73;;;13.90;99.90;;;;;;4427098;32;20126;-69
2022/05/15 06:41:50;;;;;;;0.30;0.30;;;13.90;99.90;;;;;;4428332;32;20086;-69
2022/05/15 06:44:18;;;;;;;0.20;0.20;;;14.00;99.90;;;;;;4427240;32;20430;-69
2022/05/15 06:46:45;;;;;;;0.43;0.30;;;14.10;99.90;;;;;;4425951;32;20061;-69
2022/05/15 06:49:11;;;;;;;0.20;0.20;;;14.10;99.90;;;;;;4427074;32;20246;-69
2022/05/15 06:51:36;;;;;;;1.42;0.52;;;14.10;99.90;;;;;;4427351;32;20097;-69
2022/05/15 06:54:02;;;;;;;0.30;0.30;;;14.20;99.90;;;;;;4425587;32;20069;-69
2022/05/15 06:57:28;;;;;;;0.30;0.30;;;14.30;99.90;;;;;;4426969;32;20140;-69
2022/05/15 06:59:13;;;;;;;0.30;0.30;;;14.40;99.90;;;;;;4395343;32;20077;-69
2022/05/15 07:01:38;;;;;;;0.30;0.30;;;14.40;99.90;;;;;;4414856;32;20211;-69
2022/05/15 07:04:03;;;;;;;0.30;0.30;;;14.50;99.90;;;;;;4426791;32;20081;-69
2022/05/15 07:06:30;;;;;;;0.68;0.68;;;14.60;99.90;;;;;;4428833;32;20092;-69
2022/05/15 07:08:56;;;;;;;0.30;0.30;;;14.60;99.90;;;;;;4426233;32;20077;-69
2022/05/15 07:11:22;;;;;;;0.40;0.40;;;14.70;99.90;;;;;;4428382;32;20470;-69
2022/05/15 07:13:47;;;;;;;0.70;0.47;;;14.70;99.90;;;;;;4428193;32;20508;-69
2022/05/15 07:16:13;;;;;;;4.55;0.40;;;14.80;99.90;;;;;;4427883;32;20081;-69
2022/05/15 07:18:38;;;;;;;0.30;0.30;;;14.90;99.90;;;;;;4429703;32;20088;-69
2022/05/15 07:21:04;;;;;;;0.35;0.35;;;15.10;99.90;;;;;;4429708;32;20519;-68
2022/05/15 07:23:30;;;;;;;0.30;0.30;;;15.20;99.90;;;;;;4425907;32;20130;-68
2022/05/15 07:25:56;;;;;;;0.25;0.25;;;15.20;99.90;;;;;;4427520;32;20524;-68
2022/05/15 07:28:22;;;;;;;0.30;0.30;;;15.30;99.90;;;;;;4415838;32;20065;-68
2022/05/15 07:30:50;;;;;;;15.98;0.60;;;15.40;99.90;;;;;;4408044;32;20073;-68
2022/05/15 07:33:19;;;;;;;0.30;0.30;;;15.50;99.90;;;;;;4424592;32;20057;-68
2022/05/15 07:35:44;;;;;;;0.30;0.30;;;15.60;99.90;;;;;;4425053;32;103392;-68
2022/05/15 07:38:10;;;;;;;0.30;0.30;;;15.80;99.90;;;;;;4424751;32;20049;-68
2022/05/15 07:40:35;;;;;;;12.45;0.75;;;15.90;99.90;;;;;;4426664;32;20571;-68
2022/05/15 07:43:06;;;;;;;0.30;0.30;;;16.10;99.90;;;;;;4427351;32;20109;-68
2022/05/15 07:45:32;;;;;;;16.55;1.95;;;16.30;99.90;;;;;;4424256;32;20144;-68
2022/05/15 07:47:57;;;;;;;0.50;0.50;;;16.30;99.90;;;;;;4426859;32;20061;-69
2022/05/15 07:50:23;;;;;;;0.40;0.40;;;16.30;99.90;;;;;;4425673;32;20108;-68
2022/05/15 07:52:48;;;;;;;0.20;0.20;;;16.30;99.90;;;;;;4425216;32;20334;-68
2022/05/15 07:55:14;;;;;;;1.55;0.45;;;16.50;99.90;;;;;;4423296;32;20140;-69
2022/05/15 07:57:40;;;;;;;0.50;0.50;;;16.60;99.90;;;;;;4420160;32;20061;-68
2022/05/15 08:00:10;;;;;;;0.28;0.28;;;16.80;99.90;;;;;;4407092;32;20472;-68
2022/05/15 08:02:36;;;;;;;0.50;0.50;;;16.80;99.90;;;;;;4420287;32;20077;-68
2022/05/15 08:08:09;;;;;;;0.30;0.30;;;16.70;99.90;;;;;;4414800;32;20145;-69
2022/05/15 08:10:39;;;;;;;0.30;0.30;;;16.90;99.90;;;;;;4423700;32;20450;-69
2022/05/15 08:13:06;;;;;;;0.30;0.30;;;17.10;99.90;;;;;;4422813;32;20410;-69
2022/05/15 08:15:32;;;;;;;0.73;0.40;;;17.10;99.90;;;;;;4426706;32;20136;-68
2022/05/15 08:23:33;;;;;;;0.30;0.30;;;17.30;99.90;;;;;;4426649;32;20041;-69
2022/05/15 08:23:33;;;;;;;0.30;0.30;;;17.20;99.90;;;;;;4412479;32;20188;-69
2022/05/15 08:25:59;;;;;;;0.55;0.55;;;17.10;99.90;;;;;;4428448;32;20049;-69
2022/05/15 08:28:24;;;;;;;0.52;0.52;;;17.00;99.90;;;;;;4415480;32;20535;-69
2022/05/15 08:30:50;;;;;;;0.60;0.60;;;17.20;99.90;;;;;;4414495;32;20134;-69
2022/05/15 08:33:15;;;;;;;0.93;0.77;;;17.20;99.90;;;;;;4427748;32;20070;-69
2022/05/15 08:35:41;;;;;;;0.20;0.20;;;17.30;99.90;;;;;;4428194;32;20196;-69
2022/05/15 08:38:06;;;;;;;0.80;0.68;;;17.60;99.90;;;;;;4429058;32;20060;-69
2022/05/15 08:40:45;;;;;;;0.20;0.20;;;17.80;98.70;;;;;;4431696;32;20120;-69
2022/05/15 08:43:12;;;;;;;0.35;0.35;;;17.90;98.40;;;;;;4426464;32;20090;-69
2022/05/15 08:45:42;;;;;;;0.20;0.20;;;17.80;98.70;;;;;;4428685;32;20061;-69
2022/05/15 08:48:12;;;;;;;0.20;0.20;;;17.80;99.00;;;;;;4430798;32;20123;-69
2022/05/15 08:50:45;;;;;;;5.43;1.00;;;17.70;98.80;;;;;;4429117;32;20061;-69
2022/05/15 08:53:20;;;;;;;0.30;0.30;;;17.70;99.00;;;;;;4429058;32;20073;-69
2022/05/15 08:55:50;;;;;;;2.83;0.40;;;17.80;99.20;;;;;;4426857;32;20081;-69
2022/05/15 08:58:25;;;;;;;1.20;0.73;;;17.90;97.60;;;;;;4416088;32;20086;-69
2022/05/15 09:00:52;;;;;;;0.20;0.20;;;17.90;97.30;;;;;;4409872;32;20443;-69
2022/05/15 09:03:25;;;;;;;0.25;0.25;;;17.90;96.30;;;;;;4428001;32;20574;-69
2022/05/15 09:06:13;;;;;;;0.20;0.20;;;17.90;97.10;;;;;;4426228;32;20722;-69
2022/05/15 09:09:18;;;;;;;0.30;0.30;;;18.20;96.90;;;;;;4414962;32;20093;-69
2022/05/15 09:11:53;;;;;;;0.43;0.43;;;18.20;96.60;;;;;;4419717;32;20124;-69
2022/05/15 09:14:31;;;;;;;0.20;0.20;;;18.10;96.90;;;;;;4430756;32;20060;-69
2022/05/15 09:17:01;;;;;;;0.20;0.20;;;18.30;96.50;;;;;;4429267;32;20070;-69
2022/05/15 09:19:28;;;;;;;0.40;0.40;;;18.40;96.60;;;;;;4426432;32;20077;-69
2022/05/15 09:21:54;;;;;;;0.28;0.28;;;18.60;96.10;;;;;;4427760;32;20073;-69
2022/05/15 09:24:32;;;;;;;2.62;1.08;;;18.70;94.90;;;;;;4425659;32;20064;-69
2022/05/15 09:27:12;;;;;;;0.25;0.25;;;18.90;94.90;;;;;;4425399;32;20105;-69
2022/05/15 09:29:37;;;;;;;0.37;0.32;;;18.90;96.10;;;;;;4411718;32;20319;-69
2022/05/15 09:32:06;;;;;;;6.25;1.48;;;18.90;94.80;;;;;;4418767;32;20081;-69
2022/05/15 09:34:35;;;;;;;0.20;0.20;;;19.00;95.10;;;;;;4430523;32;20101;-69
2022/05/15 09:38:35;;;;;;;6.22;1.10;;;19.00;95.10;;;;;;4427132;32;20658;-69
2022/05/15 09:39:51;;;;;;;3.12;0.50;;;19.10;93.70;;;;;;4412962;32;20143;-69
2022/05/15 09:43:37;;;;;;;0.43;0.43;;;19.00;93.60;;;;;;4430631;32;20057;-69
2022/05/15 09:45:17;;;;;;;0.22;0.22;;;19.40;93.10;;;;;;4417119;32;20073;-69
2022/05/15 09:47:45;;;;;;;0.30;0.30;;;19.60;93.10;;;;;;4429120;32;20084;-69
2022/05/15 09:50:48;;;;;;;0.30;0.30;;;19.60;92.90;;;;;;4427615;32;20097;-69
2022/05/15 09:53:26;;;;;;;0.25;0.25;;;19.60;93.10;;;;;;4417746;32;20568;-69
2022/05/15 09:56:02;;;;;;;4.47;0.95;;;19.60;93.30;;;;;;4429148;32;20065;-69
2022/05/15 09:58:39;;;;;;;0.30;0.30;;;19.80;92.00;;;;;;4414732;32;20068;-68
2022/05/15 10:01:22;;;;;;;0.30;0.30;;;19.80;92.70;;;;;;4413823;32;20075;-69
2022/05/15 10:03:50;;;;;;;0.30;0.30;;;20.00;92.70;;;;;;4430769;32;20065;-69
2022/05/15 10:06:19;;;;;;;0.20;0.20;;;20.10;92.20;;;;;;4428149;32;20070;-69
2022/05/15 10:08:45;;;;;;;0.20;0.20;;;20.20;91.20;;;;;;4424968;32;20069;-69
2022/05/15 10:11:18;;;;;;;0.45;0.45;;;20.30;91.20;;;;;;4431787;32;20070;-68
2022/05/15 10:13:47;;;;;;;0.20;0.20;;;20.30;91.30;;;;;;4425077;32;20061;-68
2022/05/15 10:16:19;;;;;;;0.30;0.30;;;20.70;91.30;;;;;;4428448;32;20164;-68
2022/05/15 10:18:54;;;;;;;0.40;0.40;;;20.80;90.80;;;;;;4426263;32;20072;-68
2022/05/15 10:21:24;;;;;;;0.30;0.30;;;20.90;89.50;;;;;;4429775;32;20131;-68
2022/05/15 10:23:57;;;;;;;0.30;0.30;;;21.00;88.50;;;;;;4426379;32;20085;-68
2022/05/15 10:26:27;;;;;;;0.32;0.32;;;21.30;89.00;;;;;;4428549;32;20586;-69
2022/05/15 10:29:11;;;;;;;0.25;0.25;;;21.40;89.30;;;;;;4411464;32;20080;-69
2022/05/15 10:31:46;;;;;;;0.47;0.28;;;21.60;86.40;;;;;;4414259;32;20069;-68
2022/05/15 10:34:15;;;;;;;0.30;0.30;;;21.90;88.40;;;;;;4425833;32;20081;-68
2022/05/15 10:36:54;;;;;;;0.57;0.52;;;22.00;85.60;;;;;;4426739;32;20078;-68
2022/05/15 10:39:30;;;;;;;0.43;0.43;;;22.10;84.40;;;;;;4425200;32;20061;-68
2022/05/15 10:42:13;;;;;;;0.30;0.30;;;22.30;85.00;;;;;;4427717;32;20070;-69
2022/05/15 10:45:15;;;;;;;0.70;0.47;;;22.20;85.30;;;;;;4427842;32;20085;-69
2022/05/15 10:47:57;;;;;;;0.10;0.10;;;22.10;85.00;;;;;;4416901;32;20082;-69
2022/05/15 10:50:33;;;;;;;0.30;0.30;;;22.20;85.50;;;;;;4428560;32;20062;-69
2022/05/15 10:57:24;;;;;;;1.65;0.30;;;22.60;84.40;;;;;;4416762;32;20100;-68
2022/05/15 10:59:09;;;;;;;0.20;0.20;;;22.60;81.70;;;;;;4397610;32;20085;-69
2022/05/15 11:02:00;;;;;;;0.20;0.20;;;22.70;81.20;;;;;;4415707;32;20513;-70
2022/05/15 11:04:41;;;;;;;0.25;0.25;;;23.10;81.10;;;;;;4412196;32;20136;-70
2022/05/15 11:07:21;;;;;;;2.05;0.32;;;23.70;80.80;;;;;;4428290;32;20083;-70
2022/05/15 11:10:18;;;;;;;0.20;0.20;;;23.60;78.80;;;;;;4424518;32;20066;-69
2022/05/15 11:13:12;;;;;;;0.85;0.75;;;23.90;79.50;;;;;;4415904;32;20085;-70
2022/05/15 11:15:46;;;;;;;0.80;0.47;;;23.60;78.90;;;;;;4418388;32;20431;-69
2022/05/15 11:18:22;;;;;;;0.73;0.68;;;23.70;77.20;;;;;;4430473;32;20076;-70
2022/05/15 11:20:53;;;;;;;0.20;0.20;;;23.50;77.80;;;;;;4427666;32;20057;-69
2022/05/15 11:23:36;;;;;;;0.20;0.20;;;23.80;76.90;;;;;;4424906;32;20410;-69
2022/05/15 11:26:11;;;;;;;0.20;0.20;;;24.10;77.20;;;;;;4426835;32;20138;-69
2022/05/15 11:28:44;;;;;;;0.20;0.20;;;24.20;75.30;;;;;;4409774;32;20081;-68
2022/05/15 11:31:15;;;;;;;0.10;0.10;;;24.10;73.10;;;;;;4410438;32;20091;-68
2022/05/15 11:33:50;;;;;;;0.25;0.25;;;24.30;74.50;;;;;;4425574;32;20086;-68
2022/05/15 11:36:25;;;;;;;0.05;0.05;;;24.70;74.00;;;;;;4427458;32;20065;-69
2022/05/15 11:38:56;;;;;;;1.02;0.50;;;24.80;73.00;;;;;;4424228;32;20050;-68
2022/05/15 11:42:08;;;;;;;0.20;0.20;;;25.00;71.80;;;;;;4426396;32;20102;-69
2022/05/15 11:44:34;;;;;;;;;;;25.10;71.80;;;;;;4412973;32;20687;-69
2022/05/15 11:47:02;;;;;;;0.10;0.10;;;25.40;69.30;;;;;;4425955;32;19961;-69
2022/05/15 11:49:36;;;;;;;0.00;0.00;;;25.70;71.20;;;;;;4426957;32;20073;-69
2022/05/15 11:52:08;;;;;;;0.08;0.08;;;25.40;69.30;;;;;;4426316;32;20125;-69
2022/05/15 11:54:38;;;;;;;0.08;0.08;;;25.70;66.80;;;;;;4422173;32;20511;-68
2022/05/15 11:57:07;;;;;;;0.00;0.00;;;26.10;67.50;;;;;;4423250;32;20142;-68
2022/05/15 11:59:38;;;;;;;0.00;0.00;;;26.40;67.30;;;;;;4391247;32;20140;-69
2022/05/15 12:02:33;;;;;;;0.20;0.20;;;26.30;66.70;;;;;;4415705;32;20061;-68
2022/05/15 12:05:09;;;;;;;0.10;0.10;;;26.40;66.40;;;;;;4413219;32;20061;-70
2022/05/15 12:07:53;;;;;;;0.10;0.10;;;26.20;66.20;;;;;;4424302;32;20510;-70
2022/05/15 12:10:41;;;;;;;0.00;0.00;;;26.90;65.90;;;;;;4426222;32;20086;-69
2022/05/15 12:13:11;;;;;;;0.17;0.10;;;27.70;63.00;;;;;;4417906;32;20130;-69
2022/05/15 12:15:46;;;;;;;0.00;0.00;;;28.20;61.20;;;;;;4425837;32;20085;-69
2022/05/15 12:18:25;;;;;;;0.17;0.10;;;27.50;62.10;;;;;;4427988;32;20065;-69
2022/05/15 12:20:53;;;;;;;0.08;0.08;;;27.00;63.80;;;;;;4427072;32;20437;-69
2022/05/15 12:23:23;;;;;;;0.00;0.00;;;26.70;65.60;;;;;;4427169;32;20081;-68
2022/05/15 12:25:56;;;;;;;0.00;0.00;;;26.80;61.10;;;;;;4426552;32;20069;-68
2022/05/15 12:28:50;;;;;;;0.00;0.00;;;27.30;62.20;;;;;;4417024;32;20376;-68
2022/05/15 12:31:29;;;;;;;0.10;0.10;;;27.40;59.20;;;;;;4401166;32;20077;-68
2022/05/15 12:34:04;;;;;;;0.17;0.17;;;27.70;59.80;;;;;;4424805;32;20581;-68
2022/05/15 12:36:41;;;;;;;0.03;0.03;;;27.70;60.70;;;;;;4423505;32;20746;-68
2022/05/15 12:39:10;;;;;;;0.05;0.05;;;28.00;59.60;;;;;;4423318;32;20117;-69
2022/05/15 12:41:41;;;;;;;0.10;0.10;;;28.50;59.60;;;;;;4425929;32;20123;-69
2022/05/15 12:44:10;;;;;;;0.00;0.00;;;28.20;60.80;;;;;;4425658;32;20211;-69
2022/05/15 12:46:40;;;;;;;0.00;0.00;;;28.30;60.90;;;;;;4426734;32;20085;-69
2022/05/15 12:49:07;;;;;;;0.00;0.00;;;28.50;58.30;;;;;;4422934;32;20058;-69
2022/05/15 12:51:41;;;;;;;0.10;0.10;;;29.00;58.20;;;;;;4425211;32;20054;-69
2022/05/15 12:54:28;;;;;;;0.00;0.00;;;29.30;57.80;;;;;;4423291;32;20066;-69
2022/05/15 12:57:00;;;;;;;0.10;0.10;;;29.30;57.90;;;;;;4426095;32;20072;-69
2022/05/15 12:59:27;;;;;;;0.00;0.00;;;29.60;57.60;;;;;;4408188;32;20061;-69
2022/05/15 13:01:53;;;;;;;0.10;0.10;;;28.90;56.90;;;;;;4414282;32;20077;-69
2022/05/15 13:04:23;;;;;;;0.10;0.10;;;29.40;56.20;;;;;;4424614;32;20082;-69
2022/05/15 13:06:53;;;;;;;0.10;0.10;;;29.20;57.30;;;;;;4426392;32;20540;-69
2022/05/15 13:09:22;;;;;;;1.50;0.93;;;29.30;57.20;;;;;;4413821;32;20414;-69